KSHR/SHR METAR and TAF weather

Enter ICAO airport designator
Station Type Date Time Source
KSHR METAR 2019/02/21 11:53 UTC NOAA

KSHR 211153Z AUTO 30007KT 4SM -SN BR OVC032 M09/M12 A2988 RMK AO2 SLP176 P0000 60000 T10941117 11094 21156 51017


Station Type Date Time Source
KSHR Decoded METAR 2019/02/21 11:53 UTC NOAA

SHERIDAN COUNTY AIRPORT, WY, United States (KSHR) 44-46N 106-58W 1202M
Feb 21, 2019 - 06:53 AM EST / 2019.02.21 1153 UTC
Wind: from the WNW (300 degrees) at 8 MPH (7 KT):0
Visibility: 4 mile(s):0
Sky conditions: overcast
Weather: light snow; mist
Precipitation last hour: A trace
Temperature: 15.1 F (-9.4 C)
Windchill: 5 F (-15 C):1
Dew Point: 10.9 F (-11.7 C)
Relative Humidity: 83%
Pressure (altimeter): 29.88 in. Hg (1011 hPa)
Pressure tendency: 0.05 inches (1.7 hPa) higher than three hours ago
ob: KSHR 211153Z AUTO 30007KT 4SM -SN BR OVC032 M09/M12 A2988 RMK AO2 SLP176 P0000 60000 T10941117 11094 21156 51017
cycle: 12

Station Type Date Time Source
KSHR TAF 2019/02/21 12:30 UTC NOAA

TAF KSHR 211127Z 2112/2212 VRB03KT P6SM VCSH OVC040
TEMPO 2112/2114 VRB04KT 4SM BR OVC025
FM212100 32006KT 2SM BR VCSH OVC015
FM220100 VRB05KT P6SM OVC040


Example: see airport list